Northwest Arkansas Regional Airport
KXNA : now visible

Airfield :











YOU CAN JOIN US ON...

 
LOGIN :

Register | Disclaimer

   EN    FR    IT 

 









Legend :    VFR   Marginal VFR   IFR   Intensive IFR   Very Intensive IFR
Visi :
Ceiling :
>= 8 km
>= 3000ft
5 to 8 km
1000 to 3000 ft
1500m to 5 km
500 to 1000 ft
800 to 1500m
200 to 500 ft
< 800m
< 200 ft
Symbols :   Thunderstorms  Fog  Heavy snow  Heavy precipitations  Wind > 20 kt






- Airport Elevation : 1287 ft


KXNA - Northwest Arkansas Regional

CURRENT METAR :
  • 120553Z AUTO 18009KT 10SM CLR 03/M04 A3035 RMK AO2 SLP282 T00331044 10056 20006 401061056 58003

EXPIRED METARs :
  • 120453Z AUTO 18008KT 10SM CLR 03/M04 A3036 RMK AO2 SLP287 T00331044
  • 120353Z 18006KT 10SM CLR 02/M06 A3036 RMK AO2 SLP287 T00171056

TAF KXNA
Valid from the 12 at 06:00 until the 13 at 06:00 UTC


120520Z 1206/1306 18008KT P6SM SCT250
FM121500 19010G22KT P6SM BKN250
FM130100 18005KT P6SM BKN250



MET'MAP, your aeronautical weather chart ! - Copyright ORBIFLY December 2007 - Disclaimer

ORBIFLY MET'MAP TEAM :

Programming & Development : Alexandra Zaïnal
Concept & original design : Baudouin d'Aumeries
Assistance for programming : Marc-Olivier Méhu
Technical & hardware support : Manuel Goepfert

Contact : metmap@orbifly.com




SOURCES & CREDITS :

   NOAA       Earth
Advisory